Time;durP1;ratioP1;P1;durP2;ratioP2;P2;SDS_P1;SDS_P2;PMS_P1;PMS_P2;Temp;Humidity;BMP_temperature;BMP_pressure;BME280_temperature;BME280_humidity;BME280_pressure;Samples;Min_cycle;Max_cycle;Signal;HPM_P1;HPM_P2
2022/09/12 00:02:02;;;;;;;7.13;5.60;;;;;;;;;;5031986;28;20573;-87
2022/09/12 00:04:29;;;;;;;9.23;7.23;;;;;;;;;;5033759;28;20290;-88
2022/09/12 00:06:56;;;;;;;6.80;6.07;;;;;;;;;;5034165;28;20209;-84
2022/09/12 00:09:23;;;;;;;7.60;6.37;;;;;;;;;;5033750;28;20238;-87
2022/09/12 00:11:50;;;;;;;7.33;6.17;;;;;;;;;;5034400;28;20217;-87
2022/09/12 00:14:18;;;;;;;7.37;5.87;;;;;;;;;;5033270;28;20607;-87
2022/09/12 00:16:47;;;;;;;7.00;6.30;;;;;;;;;;5033957;28;20623;-87
2022/09/12 00:19:15;;;;;;;6.40;5.80;;;;;;;;;;5033381;28;20602;-88
2022/09/12 00:21:42;;;;;;;6.97;5.80;;;;;;;;;;5033175;28;20214;-87
2022/09/12 00:24:10;;;;;;;6.70;5.70;;;;;;;;;;5032524;28;20238;-86
2022/09/12 00:26:37;;;;;;;8.13;5.37;;;;;;;;;;5033997;28;20578;-87
2022/09/12 00:29:04;;;;;;;6.70;5.73;;;;;;;;;;5033115;28;20230;-87
2022/09/12 00:31:31;;;;;;;8.20;6.30;;;;;;;;;;5033400;28;20217;-85
2022/09/12 00:34:00;;;;;;;7.73;6.23;;;;;;;;;;5032743;28;20687;-88
2022/09/12 00:36:28;;;;;;;7.60;6.00;;;;;;;;;;5033290;28;20214;-85
2022/09/12 00:38:55;;;;;;;7.27;5.60;;;;;;;;;;5033018;28;20226;-87
2022/09/12 00:41:24;;;;;;;6.40;5.80;;;;;;;;;;5033473;28;20265;-86
2022/09/12 00:43:52;;;;;;;6.17;5.53;;;;;;;;;;5032318;28;20238;-87
2022/09/12 00:46:37;;;;;;;5.53;5.00;;;;;;;;;;5032582;28;20575;-88
2022/09/12 00:49:08;;;;;;;5.13;4.70;;;;;;;;;;5032590;28;20234;-87
2022/09/12 00:51:37;;;;;;;5.90;5.30;;;;;;;;;;5033127;28;20221;-87
2022/09/12 00:54:08;;;;;;;6.67;4.97;;;;;;;;;;5032576;28;20316;-86
2022/09/12 00:56:35;;;;;;;8.60;5.47;;;;;;;;;;5027286;28;20231;-89
2022/09/12 00:59:06;;;;;;;10.10;5.53;;;;;;;;;;5026880;28;20238;-86
2022/09/12 01:01:33;;;;;;;6.63;5.90;;;;;;;;;;5032804;28;20292;-87
2022/09/12 01:04:00;;;;;;;8.87;5.80;;;;;;;;;;5032200;28;20641;-87
2022/09/12 01:06:30;;;;;;;8.00;6.33;;;;;;;;;;5030465;28;20547;-86
2022/09/12 01:09:02;;;;;;;6.60;5.50;;;;;;;;;;5029331;28;20242;-86
2022/09/12 01:11:29;;;;;;;5.57;5.07;;;;;;;;;;5013430;28;20250;-87
2022/09/12 01:13:56;;;;;;;8.50;6.30;;;;;;;;;;5014401;28;20254;-87
2022/09/12 01:16:23;;;;;;;8.73;5.57;;;;;;;;;;5013999;28;20207;-87
2022/09/12 01:18:55;;;;;;;5.67;5.00;;;;;;;;;;5013197;28;20215;-87
2022/09/12 01:21:29;;;;;;;6.07;5.47;;;;;;;;;;5013704;28;20592;-88
2022/09/12 01:24:04;;;;;;;9.17;5.57;;;;;;;;;;5012617;28;20235;-87
2022/09/12 01:26:49;;;;;;;6.23;5.50;;;;;;;;;;5013294;28;20269;-86
2022/09/12 01:29:24;;;;;;;7.80;5.27;;;;;;;;;;4989370;28;20233;-87
2022/09/12 01:31:55;;;;;;;8.10;6.10;;;;;;;;;;5033301;28;20194;-87
2022/09/12 01:34:26;;;;;;;8.97;6.30;;;;;;;;;;5032592;28;20255;-87
2022/09/12 01:36:59;;;;;;;11.20;6.30;;;;;;;;;;5034141;28;20673;-85
2022/09/12 01:39:31;;;;;;;6.13;5.53;;;;;;;;;;5032765;28;20235;-87
2022/09/12 01:42:04;;;;;;;6.60;4.53;;;;;;;;;;5033015;28;20222;-86
2022/09/12 01:44:36;;;;;;;5.83;5.20;;;;;;;;;;5032528;28;20258;-85
2022/09/12 01:47:07;;;;;;;5.90;5.30;;;;;;;;;;5034050;28;20211;-87
2022/09/12 01:49:37;;;;;;;6.37;5.03;;;;;;;;;;5032439;28;20269;-86
2022/09/12 01:52:08;;;;;;;6.73;6.03;;;;;;;;;;5032544;28;20241;-87
2022/09/12 01:54:38;;;;;;;6.37;5.73;;;;;;;;;;5032766;28;20682;-88
2022/09/12 01:57:10;;;;;;;6.80;5.30;;;;;;;;;;5033149;28;20286;-86
2022/09/12 01:59:41;;;;;;;6.70;5.47;;;;;;;;;;5035910;28;20238;-87
2022/09/12 02:02:11;;;;;;;9.30;6.27;;;;;;;;;;5036117;28;20190;-86
2022/09/12 02:04:41;;;;;;;6.43;5.80;;;;;;;;;;5035676;28;20234;-87
2022/09/12 02:07:11;;;;;;;6.70;6.00;;;;;;;;;;5036355;28;20243;-86
2022/09/12 02:09:39;;;;;;;6.20;5.60;;;;;;;;;;5036117;28;20226;-86
2022/09/12 02:12:08;;;;;;;8.27;6.07;;;;;;;;;;5036422;28;20214;-87
2022/09/12 02:14:38;;;;;;;5.90;5.30;;;;;;;;;;5042716;28;20215;-82
2022/09/12 02:17:07;;;;;;;11.07;5.03;;;;;;;;;;5053707;28;20233;-86
2022/09/12 02:19:39;;;;;;;6.07;4.73;;;;;;;;;;5049758;28;20261;-86
2022/09/12 02:22:07;;;;;;;7.70;5.90;;;;;;;;;;5049004;28;20198;-85
2022/09/12 02:24:37;;;;;;;7.40;5.50;;;;;;;;;;5037791;28;20245;-87
2022/09/12 02:27:06;;;;;;;6.43;5.83;;;;;;;;;;5036688;28;20389;-87
2022/09/12 02:29:33;;;;;;;6.83;5.10;;;;;;;;;;5035970;28;20237;-87
2022/09/12 02:32:05;;;;;;;6.20;5.60;;;;;;;;;;5036138;28;20210;-87
2022/09/12 02:34:38;;;;;;;9.77;6.20;;;;;;;;;;5036004;28;20277;-86
2022/09/12 02:37:12;;;;;;;6.00;5.17;;;;;;;;;;5036720;28;20245;-86
2022/09/12 02:39:39;;;;;;;5.90;5.30;;;;;;;;;;5034901;28;20335;-87
2022/09/12 02:42:07;;;;;;;7.87;5.27;;;;;;;;;;5035211;28;20217;-87
2022/09/12 02:44:35;;;;;;;6.00;4.80;;;;;;;;;;5035097;28;20238;-87
2022/09/12 02:47:04;;;;;;;5.43;5.03;;;;;;;;;;5035291;28;20268;-87
2022/09/12 02:49:31;;;;;;;6.83;5.03;;;;;;;;;;5034792;28;20227;-87
2022/09/12 02:51:59;;;;;;;6.13;5.60;;;;;;;;;;5035475;28;20265;-87
2022/09/12 02:54:28;;;;;;;6.80;5.93;;;;;;;;;;5034855;28;20222;-86
2022/09/12 02:56:55;;;;;;;10.90;6.53;;;;;;;;;;5035424;28;20203;-85
2022/09/12 02:59:23;;;;;;;10.83;6.50;;;;;;;;;;5034847;28;20238;-87
2022/09/12 03:01:57;;;;;;;7.30;6.10;;;;;;;;;;5034895;28;20417;-86
2022/09/12 03:04:36;;;;;;;7.07;6.27;;;;;;;;;;5034490;28;20697;-86
2022/09/12 03:07:10;;;;;;;7.77;6.73;;;;;;;;;;5035124;28;20198;-86
2022/09/12 03:09:43;;;;;;;7.40;6.30;;;;;;;;;;5033565;28;20237;-87
2022/09/12 03:12:17;;;;;;;8.63;7.07;;;;;;;;;;5034656;28;20231;-87
2022/09/12 03:15:00;;;;;;;9.80;7.10;;;;;;;;;;5034374;28;20234;-87
2022/09/12 03:17:30;;;;;;;8.90;5.83;;;;;;;;;;5034779;28;20214;-87
2022/09/12 03:20:01;;;;;;;8.33;6.83;;;;;;;;;;5034163;28;20266;-86
2022/09/12 03:22:31;;;;;;;8.07;6.73;;;;;;;;;;5034564;28;20266;-87
2022/09/12 03:25:04;;;;;;;8.33;6.77;;;;;;;;;;5033960;28;20237;-86
2022/09/12 03:27:33;;;;;;;8.87;7.17;;;;;;;;;;5034833;28;20234;-87
2022/09/12 03:30:01;;;;;;;10.80;7.70;;;;;;;;;;5033933;28;20265;-85
2022/09/12 03:32:41;;;;;;;10.43;7.80;;;;;;;;;;5034465;28;20238;-87
2022/09/12 03:35:08;;;;;;;8.40;6.70;;;;;;;;;;5034001;28;20603;-87
2022/09/12 03:37:35;;;;;;;10.13;7.83;;;;;;;;;;5034522;28;20209;-87
2022/09/12 03:40:04;;;;;;;9.57;7.13;;;;;;;;;;5033869;28;20324;-87
2022/09/12 03:42:31;;;;;;;10.97;7.10;;;;;;;;;;5034694;28;20264;-86
2022/09/12 03:44:58;;;;;;;8.37;6.70;;;;;;;;;;5033712;28;20235;-87
2022/09/12 03:47:25;;;;;;;9.50;7.50;;;;;;;;;;5034594;28;20246;-86
2022/09/12 03:49:52;;;;;;;9.13;6.73;;;;;;;;;;5033582;28;20285;-86
2022/09/12 03:52:19;;;;;;;9.10;6.37;;;;;;;;;;5034098;28;20231;-86
2022/09/12 03:54:46;;;;;;;10.40;6.63;;;;;;;;;;5033760;28;20240;-86
2022/09/12 03:57:15;;;;;;;7.90;6.83;;;;;;;;;;5033913;28;20214;-87
2022/09/12 03:59:43;;;;;;;7.33;6.53;;;;;;;;;;5033467;28;20710;-86
2022/09/12 04:02:11;;;;;;;7.27;6.07;;;;;;;;;;5032970;28;20227;-87
2022/09/12 04:04:39;;;;;;;12.73;6.63;;;;;;;;;;5036836;28;20625;-86
2022/09/12 04:07:06;;;;;;;7.60;6.70;;;;;;;;;;5033901;28;20668;-87
2022/09/12 04:09:33;;;;;;;6.60;5.50;;;;;;;;;;5033371;28;20222;-86
2022/09/12 04:12:00;;;;;;;7.87;6.03;;;;;;;;;;5033627;28;20210;-86
2022/09/12 04:14:28;;;;;;;5.93;5.40;;;;;;;;;;5033269;28;20248;-85
2022/09/12 04:16:55;;;;;;;6.07;5.27;;;;;;;;;;5016313;28;20663;-86
2022/09/12 04:19:22;;;;;;;7.43;5.40;;;;;;;;;;5013501;28;20343;-85
2022/09/12 04:21:49;;;;;;;6.67;5.30;;;;;;;;;;5023826;28;20217;-86
2022/09/12 04:24:16;;;;;;;7.43;6.00;;;;;;;;;;5052809;28;20238;-86
2022/09/12 04:26:44;;;;;;;7.13;5.63;;;;;;;;;;5053763;28;20224;-85
2022/09/12 04:29:12;;;;;;;6.57;5.17;;;;;;;;;;5053207;28;20237;-86
2022/09/12 04:31:40;;;;;;;5.30;4.80;;;;;;;;;;5053585;28;20213;-86
2022/09/12 04:34:07;;;;;;;7.37;6.33;;;;;;;;;;5039242;28;20231;-85
2022/09/12 04:36:34;;;;;;;10.30;5.70;;;;;;;;;;5040388;28;20213;-86
2022/09/12 04:39:02;;;;;;;11.80;5.63;;;;;;;;;;5052061;28;20229;-86
2022/09/12 04:41:33;;;;;;;7.03;5.73;;;;;;;;;;5032968;28;20234;-87
2022/09/12 04:44:01;;;;;;;11.60;6.30;;;;;;;;;;5033047;28;20245;-86
2022/09/12 04:46:29;;;;;;;7.93;6.50;;;;;;;;;;5024098;28;20231;-86
2022/09/12 04:48:57;;;;;;;7.50;6.37;;;;;;;;;;5013094;28;20239;-87
2022/09/12 04:51:26;;;;;;;7.23;6.33;;;;;;;;;;5013888;28;20211;-86
2022/09/12 04:53:54;;;;;;;9.27;6.87;;;;;;;;;;5013541;28;20235;-87
2022/09/12 04:56:24;;;;;;;8.80;7.00;;;;;;;;;;5014660;28;20210;-86
2022/09/12 04:58:51;;;;;;;8.17;6.20;;;;;;;;;;5014539;28;20235;-86
2022/09/12 05:01:19;;;;;;;9.63;6.47;;;;;;;;;;5032283;28;20184;-82
2022/09/12 05:03:47;;;;;;;6.37;5.70;;;;;;;;;;5036293;28;20266;-83
2022/09/12 05:06:17;;;;;;;8.07;6.63;;;;;;;;;;5014824;28;20234;-85
2022/09/12 05:08:45;;;;;;;8.30;6.83;;;;;;;;;;5013165;28;20195;-87
2022/09/12 05:11:13;;;;;;;9.13;7.27;;;;;;;;;;5013358;28;20212;-87
2022/09/12 05:13:40;;;;;;;13.67;8.57;;;;;;;;;;5012845;28;20593;-87
2022/09/12 05:16:07;;;;;;;12.13;8.43;;;;;;;;;;5013201;28;20207;-87
2022/09/12 05:18:35;;;;;;;17.20;8.70;;;;;;;;;;5012501;28;20208;-86
2022/09/12 05:21:04;;;;;;;10.23;7.87;;;;;;;;;;5012626;28;20203;-85
2022/09/12 05:23:33;;;;;;;10.03;7.20;;;;;;;;;;5012319;28;20235;-86
2022/09/12 05:26:01;;;;;;;8.00;6.73;;;;;;;;;;5012452;28;20269;-85
2022/09/12 05:28:30;;;;;;;14.53;6.70;;;;;;;;;;5013266;28;20207;-86
2022/09/12 05:31:01;;;;;;;11.87;7.20;;;;;;;;;;5012184;28;20246;-87
2022/09/12 05:33:29;;;;;;;10.33;6.90;;;;;;;;;;5012337;28;20231;-86
2022/09/12 05:35:56;;;;;;;9.17;7.07;;;;;;;;;;5012731;28;20219;-85
2022/09/12 05:38:23;;;;;;;8.27;7.43;;;;;;;;;;5013617;28;20203;-86
2022/09/12 05:40:52;;;;;;;12.83;7.13;;;;;;;;;;5012186;28;20286;-85
2022/09/12 05:43:19;;;;;;;9.30;7.00;;;;;;;;;;5026333;28;20234;-86
2022/09/12 05:45:47;;;;;;;14.03;6.73;;;;;;;;;;5012035;28;20262;-86
2022/09/12 05:48:14;;;;;;;9.00;7.03;;;;;;;;;;5012368;28;20664;-86
2022/09/12 05:50:41;;;;;;;9.63;7.07;;;;;;;;;;5030331;28;20230;-86
2022/09/12 05:53:08;;;;;;;9.53;7.83;;;;;;;;;;5032375;28;20226;-86
2022/09/12 05:55:35;;;;;;;14.03;7.90;;;;;;;;;;5026431;28;20230;-86
2022/09/12 05:58:03;;;;;;;12.13;7.50;;;;;;;;;;5032363;28;20297;-86
2022/09/12 06:00:31;;;;;;;10.70;7.60;;;;;;;;;;5031513;28;20238;-84
2022/09/12 06:02:58;;;;;;;12.40;7.90;;;;;;;;;;5032166;28;20624;-86
2022/09/12 06:05:25;;;;;;;9.23;7.10;;;;;;;;;;5032395;28;20238;-85
2022/09/12 06:07:52;;;;;;;8.87;7.93;;;;;;;;;;5032702;28;20206;-87
2022/09/12 06:10:21;;;;;;;11.83;9.50;;;;;;;;;;5032357;28;20230;-84
2022/09/12 06:12:48;;;;;;;10.13;7.73;;;;;;;;;;5034061;28;20226;-86
2022/09/12 06:15:17;;;;;;;10.07;8.00;;;;;;;;;;5033775;28;20238;-87
2022/09/12 06:17:44;;;;;;;11.00;8.73;;;;;;;;;;5035646;28;20207;-87
2022/09/12 06:20:11;;;;;;;11.60;8.60;;;;;;;;;;5032649;28;20281;-84
2022/09/12 06:22:38;;;;;;;12.57;7.97;;;;;;;;;;5029609;28;20222;-87
2022/09/12 06:25:07;;;;;;;12.13;9.37;;;;;;;;;;5013688;28;20236;-85
2022/09/12 06:27:34;;;;;;;14.63;9.30;;;;;;;;;;5013807;28;20590;-86
2022/09/12 06:30:01;;;;;;;14.00;8.70;;;;;;;;;;5012043;28;20235;-87
2022/09/12 06:32:33;;;;;;;13.03;8.73;;;;;;;;;;5015072;28;20227;-86
2022/09/12 06:35:00;;;;;;;12.77;8.00;;;;;;;;;;5032500;28;20648;-86
2022/09/12 06:37:27;;;;;;;10.53;8.60;;;;;;;;;;5044503;28;20666;-85
2022/09/12 06:39:55;;;;;;;13.20;8.93;;;;;;;;;;5034101;28;20587;-83
2022/09/12 06:42:22;;;;;;;12.30;9.30;;;;;;;;;;5032698;28;20235;-86
2022/09/12 06:44:49;;;;;;;13.27;9.93;;;;;;;;;;5032884;28;20234;-87
2022/09/12 06:47:16;;;;;;;13.07;9.90;;;;;;;;;;5035986;28;20321;-87
2022/09/12 06:49:45;;;;;;;17.87;10.90;;;;;;;;;;5035604;28;20241;-87
2022/09/12 06:52:12;;;;;;;14.77;10.40;;;;;;;;;;5035679;28;20226;-87
2022/09/12 06:54:39;;;;;;;16.20;11.20;;;;;;;;;;5031478;28;20245;-86
2022/09/12 06:57:07;;;;;;;21.47;11.53;;;;;;;;;;5034814;28;20199;-87
2022/09/12 06:59:34;;;;;;;16.07;11.60;;;;;;;;;;5033311;28;20228;-86
2022/09/12 07:02:01;;;;;;;20.17;12.50;;;;;;;;;;4995820;28;20219;-86
2022/09/12 07:04:29;;;;;;;17.73;12.83;;;;;;;;;;5003740;28;20230;-85
2022/09/12 07:06:57;;;;;;;18.17;12.73;;;;;;;;;;5016266;28;20224;-85
2022/09/12 07:09:25;;;;;;;17.87;10.97;;;;;;;;;;5015687;28;20238;-87
2022/09/12 07:11:52;;;;;;;16.10;11.43;;;;;;;;;;5016733;28;20683;-87
2022/09/12 07:14:19;;;;;;;20.20;11.93;;;;;;;;;;5014205;28;20725;-86
2022/09/12 07:16:46;;;;;;;15.20;11.57;;;;;;;;;;5015094;28;20210;-87
2022/09/12 07:19:13;;;;;;;15.97;12.47;;;;;;;;;;5014328;28;20239;-86
2022/09/12 07:21:40;;;;;;;14.77;11.27;;;;;;;;;;5014978;28;20211;-87
2022/09/12 07:24:10;;;;;;;13.80;10.63;;;;;;;;;;5013828;28;20246;-87
2022/09/12 07:26:37;;;;;;;16.43;11.33;;;;;;;;;;5014902;28;20234;-87
2022/09/12 07:29:05;;;;;;;12.63;10.03;;;;;;;;;;5013670;28;20235;-86
2022/09/12 07:31:32;;;;;;;14.23;10.70;;;;;;;;;;5027159;28;20242;-88
2022/09/12 07:33:59;;;;;;;13.00;10.77;;;;;;;;;;5032794;28;20242;-87
2022/09/12 07:36:26;;;;;;;13.23;10.63;;;;;;;;;;5034598;28;20206;-87
2022/09/12 07:38:57;;;;;;;13.57;10.93;;;;;;;;;;5053778;28;20230;-87
2022/09/12 07:41:26;;;;;;;13.93;10.97;;;;;;;;;;5054198;28;20673;-87
2022/09/12 07:43:54;;;;;;;15.13;10.50;;;;;;;;;;5052988;28;20244;-87
2022/09/12 07:46:22;;;;;;;12.43;10.30;;;;;;;;;;5053985;28;20284;-87
2022/09/12 07:48:52;;;;;;;13.00;10.63;;;;;;;;;;5053930;28;20252;-87
2022/09/12 07:51:20;;;;;;;14.27;9.73;;;;;;;;;;5054872;28;20210;-87
2022/09/12 07:53:47;;;;;;;11.20;9.53;;;;;;;;;;5069290;28;20232;-86
2022/09/12 07:56:15;;;;;;;11.90;9.27;;;;;;;;;;5055438;28;20861;-87
2022/09/12 07:58:44;;;;;;;10.63;9.53;;;;;;;;;;5057184;28;20673;-86
2022/09/12 08:01:12;;;;;;;11.43;9.00;;;;;;;;;;5046051;28;20213;-87
2022/09/12 08:03:39;;;;;;;11.90;9.60;;;;;;;;;;5034309;28;20223;-87
2022/09/12 08:06:07;;;;;;;11.03;9.80;;;;;;;;;;5033586;28;20683;-86
2022/09/12 08:08:35;;;;;;;11.10;8.77;;;;;;;;;;5033009;28;20231;-87
2022/09/12 08:11:02;;;;;;;11.30;9.23;;;;;;;;;;5033512;28;20234;-88
2022/09/12 08:13:30;;;;;;;10.17;8.90;;;;;;;;;;5033612;28;20292;-87
2022/09/12 08:15:59;;;;;;;9.13;8.17;;;;;;;;;;5033047;28;20689;-87
2022/09/12 08:18:27;;;;;;;9.77;8.63;;;;;;;;;;5033856;28;20348;-88
2022/09/12 08:20:57;;;;;;;9.40;7.97;;;;;;;;;;5032101;28;20316;-87
2022/09/12 08:23:25;;;;;;;10.97;9.00;;;;;;;;;;5033111;28;20690;-87
2022/09/12 08:25:52;;;;;;;9.15;7.93;;;;;;;;;;5032141;28;20234;-88
2022/09/12 08:28:19;;;;;;;12.13;7.80;;;;;;;;;;5033306;28;20720;-88
2022/09/12 08:30:46;;;;;;;8.65;7.50;;;;;;;;;;5032140;28;20238;-88
2022/09/12 08:33:15;;;;;;;9.77;8.07;;;;;;;;;;5032402;28;20218;-84
2022/09/12 08:35:42;;;;;;;9.63;7.45;;;;;;;;;;5031837;28;20674;-87
2022/09/12 08:38:09;;;;;;;12.73;8.18;;;;;;;;;;5033021;28;20656;-86
2022/09/12 08:40:43;;;;;;;12.27;7.70;;;;;;;;;;5032176;28;20239;-86
2022/09/12 08:43:19;;;;;;;9.32;7.70;;;;;;;;;;5032276;28;20978;-86
2022/09/12 08:45:49;;;;;;;9.38;7.03;;;;;;;;;;5031450;28;20238;-85
2022/09/12 08:48:18;;;;;;;8.30;7.28;;;;;;;;;;5032408;28;20211;-85
2022/09/12 08:50:46;;;;;;;7.65;6.63;;;;;;;;;;5031828;28;20245;-86
2022/09/12 08:53:14;;;;;;;10.98;7.75;;;;;;;;;;5032209;28;20227;-86
2022/09/12 08:55:43;;;;;;;10.45;6.70;;;;;;;;;;5031797;28;20300;-86
2022/09/12 08:58:13;;;;;;;8.52;7.15;;;;;;;;;;5031891;28;20207;-85
2022/09/12 09:00:44;;;;;;;8.35;7.53;;;;;;;;;;5032277;28;20584;-85
2022/09/12 09:03:36;;;;;;;7.72;6.80;;;;;;;;;;5032302;28;20721;-86
2022/09/12 09:06:08;;;;;;;7.18;6.43;;;;;;;;;;5025834;28;20630;-85
2022/09/12 09:08:42;;;;;;;7.68;6.63;;;;;;;;;;5031348;28;20322;-86
2022/09/12 09:11:18;;;;;;;7.68;6.68;;;;;;;;;;5032046;28;20282;-86
2022/09/12 09:16:36;;;;;;;14.93;7.10;;;;;;;;;;5032019;28;20189;-86
2022/09/12 09:19:06;;;;;;;8.45;6.57;;;;;;;;;;5031580;28;20230;-86
2022/09/12 09:21:35;;;;;;;8.02;6.63;;;;;;;;;;5031489;28;20218;-86
2022/09/12 09:24:04;;;;;;;6.90;6.00;;;;;;;;;;5031655;28;20234;-87
2022/09/12 09:26:36;;;;;;;6.63;5.50;;;;;;;;;;5032334;28;20639;-86
2022/09/12 09:29:06;;;;;;;6.38;5.15;;;;;;;;;;5031439;28;20228;-86
2022/09/12 09:31:36;;;;;;;6.25;5.65;;;;;;;;;;5031789;28;20203;-86
2022/09/12 09:34:13;;;;;;;6.30;5.47;;;;;;;;;;5030670;28;20316;-84
2022/09/12 09:36:45;;;;;;;5.32;4.82;;;;;;;;;;5032114;28;20218;-86
2022/09/12 09:39:17;;;;;;;5.95;5.28;;;;;;;;;;5031546;28;20690;-86
2022/09/12 09:41:49;;;;;;;5.18;4.68;;;;;;;;;;5031504;28;20202;-86
2022/09/12 09:44:17;;;;;;;5.93;4.88;;;;;;;;;;5046650;23;20222;-85
2022/09/12 09:46:44;;;;;;;4.63;4.22;;;;;;;;;;5024311;28;20238;-84
2022/09/12 09:49:14;;;;;;;5.75;4.95;;;;;;;;;;5032344;28;21048;-83
2022/09/12 09:51:42;;;;;;;5.82;4.85;;;;;;;;;;5032536;28;20207;-83
2022/09/12 09:54:13;;;;;;;7.10;5.03;;;;;;;;;;5031814;28;20288;-85
2022/09/12 09:56:41;;;;;;;5.68;4.55;;;;;;;;;;5033376;28;20617;-84
2022/09/12 09:59:10;;;;;;;6.38;4.68;;;;;;;;;;5032186;28;20257;-85
2022/09/12 10:01:38;;;;;;;4.20;3.80;;;;;;;;;;5033049;28;20280;-84
2022/09/12 10:04:06;;;;;;;5.13;4.18;;;;;;;;;;5026154;28;20230;-85
2022/09/12 10:06:37;;;;;;;5.05;4.50;;;;;;;;;;5012616;28;20215;-85
2022/09/12 10:09:07;;;;;;;5.63;3.90;;;;;;;;;;5009312;28;20316;-84
2022/09/12 10:11:35;;;;;;;4.38;3.97;;;;;;;;;;4993300;28;20579;-85
2022/09/12 10:14:03;;;;;;;4.13;3.72;;;;;;;;;;4992405;28;20259;-85
2022/09/12 10:16:31;;;;;;;4.40;3.90;;;;;;;;;;4994161;28;20212;-85
2022/09/12 10:19:00;;;;;;;4.70;3.90;;;;;;;;;;4994101;28;20676;-85
2022/09/12 10:21:29;;;;;;;3.72;3.42;;;;;;;;;;4998224;28;20200;-86
2022/09/12 10:24:15;;;;;;;4.53;4.07;;;;;;;;;;5019155;28;20234;-85
2022/09/12 10:26:42;;;;;;;4.07;3.70;;;;;;;;;;5036119;28;20721;-85
2022/09/12 10:29:13;;;;;;;5.45;3.90;;;;;;;;;;5029891;28;20243;-86
2022/09/12 10:31:44;;;;;;;4.38;3.97;;;;;;;;;;5016542;28;20216;-85
2022/09/12 10:34:21;;;;;;;6.10;3.22;;;;;;;;;;5007457;28;20844;-85
2022/09/12 10:36:48;;;;;;;3.85;3.55;;;;;;;;;;5014957;28;20214;-85
2022/09/12 10:39:18;;;;;;;3.47;3.15;;;;;;;;;;5014781;28;20241;-85
2022/09/12 10:41:46;;;;;;;3.55;3.25;;;;;;;;;;5015295;28;20735;-86
2022/09/12 10:44:16;;;;;;;3.88;3.45;;;;;;;;;;5013191;28;20804;-86
2022/09/12 10:46:43;;;;;;;3.78;3.40;;;;;;;;;;5014814;28;20215;-86
2022/09/12 10:49:15;;;;;;;4.32;4.03;;;;;;;;;;5014762;28;20774;-86
2022/09/12 10:51:42;;;;;;;4.10;3.50;;;;;;;;;;5015229;28;20215;-85
2022/09/12 10:54:11;;;;;;;4.22;3.80;;;;;;;;;;5012349;28;20778;-86
2022/09/12 10:56:46;;;;;;;4.75;3.25;;;;;;;;;;5012159;28;20203;-85
2022/09/12 10:59:23;;;;;;;3.53;3.22;;;;;;;;;;4995901;28;20318;-86
2022/09/12 11:01:51;;;;;;;3.83;3.42;;;;;;;;;;4996278;28;20200;-86
2022/09/12 11:04:24;;;;;;;3.50;3.20;;;;;;;;;;4994269;28;20243;-88
2022/09/12 11:06:56;;;;;;;4.03;3.47;;;;;;;;;;4995902;28;20216;-86
2022/09/12 11:09:27;;;;;;;3.75;3.45;;;;;;;;;;4995608;28;20752;-86
2022/09/12 11:12:02;;;;;;;4.15;3.72;;;;;;;;;;4995102;28;20207;-86
2022/09/12 11:14:39;;;;;;;4.00;3.70;;;;;;;;;;4995203;28;20609;-86
2022/09/12 11:17:10;;;;;;;3.63;3.20;;;;;;;;;;4996768;28;20247;-87
2022/09/12 11:19:43;;;;;;;4.18;3.78;;;;;;;;;;4995154;28;20235;-86
2022/09/12 11:22:30;;;;;;;4.30;3.38;;;;;;;;;;4996794;28;20204;-87
2022/09/12 11:25:21;;;;;;;4.18;3.67;;;;;;;;;;5014544;28;20243;-87
2022/09/12 11:27:55;;;;;;;3.58;3.28;;;;;;;;;;5000918;28;20228;-87
2022/09/12 11:30:22;;;;;;;3.28;2.97;;;;;;;;;;5014416;28;20250;-86
2022/09/12 11:33:07;;;;;;;4.57;3.35;;;;;;;;;;5016540;28;20212;-87
2022/09/12 11:35:37;;;;;;;3.83;3.50;;;;;;;;;;5015199;28;20239;-87
2022/09/12 11:38:28;;;;;;;4.03;3.63;;;;;;;;;;5015943;28;20663;-87
2022/09/12 11:40:59;;;;;;;3.63;3.35;;;;;;;;;;5003291;28;20263;-88
2022/09/12 11:43:32;;;;;;;3.58;3.25;;;;;;;;;;5007187;28;20207;-87
2022/09/12 11:46:01;;;;;;;4.57;3.90;;;;;;;;;;5035075;28;20211;-87
2022/09/12 11:48:36;;;;;;;3.60;3.30;;;;;;;;;;5026000;28;20219;-86
2022/09/12 11:51:05;;;;;;;3.50;3.20;;;;;;;;;;5014797;28;20725;-87
2022/09/12 11:53:37;;;;;;;3.78;3.47;;;;;;;;;;5031122;28;20210;-87
2022/09/12 11:56:08;;;;;;;3.85;3.53;;;;;;;;;;5034432;28;20206;-88
2022/09/12 11:58:37;;;;;;;3.28;2.97;;;;;;;;;;5033878;28;20202;-87
2022/09/12 12:01:10;;;;;;;3.88;3.58;;;;;;;;;;5020442;28;20215;-87
2022/09/12 12:03:40;;;;;;;3.20;2.95;;;;;;;;;;5030858;28;20206;-87
2022/09/12 12:06:11;;;;;;;3.63;3.20;;;;;;;;;;5006790;28;20604;-87
2022/09/12 12:08:40;;;;;;;3.55;3.25;;;;;;;;;;5013895;28;20727;-87
2022/09/12 12:11:07;;;;;;;4.18;3.47;;;;;;;;;;5014288;28;20714;-88
2022/09/12 12:13:38;;;;;;;3.22;2.92;;;;;;;;;;5013053;28;20261;-88
2022/09/12 12:16:07;;;;;;;3.42;3.13;;;;;;;;;;5015280;28;20200;-87
2022/09/12 12:18:36;;;;;;;5.45;3.03;;;;;;;;;;5016315;28;20211;-88
2022/09/12 12:21:20;;;;;;;3.55;3.25;;;;;;;;;;5015168;28;20214;-88
2022/09/12 12:24:03;;;;;;;3.35;3.08;;;;;;;;;;5014634;28;20227;-88
2022/09/12 12:26:44;;;;;;;3.22;3.03;;;;;;;;;;5014735;28;20211;-87
2022/09/12 12:29:14;;;;;;;3.40;3.15;;;;;;;;;;5013897;28;20247;-88
2022/09/12 12:32:00;;;;;;;3.35;3.05;;;;;;;;;;5014925;28;20199;-88
2022/09/12 12:34:28;;;;;;;3.53;3.22;;;;;;;;;;5013874;28;20663;-87
2022/09/12 12:36:56;;;;;;;3.95;3.30;;;;;;;;;;5014956;28;20203;-88
2022/09/12 12:39:45;;;;;;;3.20;2.90;;;;;;;;;;5014588;28;20289;-88
2022/09/12 12:42:27;;;;;;;3.53;3.22;;;;;;;;;;5027848;28;20751;-79
2022/09/12 12:44:55;;;;;;;3.28;2.97;;;;;;;;;;5040981;28;20238;-79
2022/09/12 12:47:24;;;;;;;3.53;3.22;;;;;;;;;;5024909;28;20207;-80
2022/09/12 12:49:53;;;;;;;3.53;3.22;;;;;;;;;;5041773;28;20300;-80
2022/09/12 12:52:20;;;;;;;3.25;2.95;;;;;;;;;;5042667;28;20218;-82
2022/09/12 12:54:52;;;;;;;2.85;2.65;;;;;;;;;;5047045;28;20245;-80
2022/09/12 12:57:23;;;;;;;3.38;3.03;;;;;;;;;;5041102;28;20271;-81
2022/09/12 12:59:52;;;;;;;3.65;3.35;;;;;;;;;;5026534;28;20239;-80
2022/09/12 13:02:23;;;;;;;3.30;3.00;;;;;;;;;;5042044;28;20203;-83
2022/09/12 13:04:51;;;;;;;3.25;2.95;;;;;;;;;;5047080;28;20706;-83
2022/09/12 13:07:25;;;;;;;3.25;3.05;;;;;;;;;;5047722;28;20214;-81
2022/09/12 13:09:53;;;;;;;3.72;3.42;;;;;;;;;;5047093;28;20230;-82
2022/09/12 13:12:23;;;;;;;3.40;3.10;;;;;;;;;;5049688;28;20886;-80
2022/09/12 13:14:53;;;;;;;3.15;2.95;;;;;;;;;;5048378;28;20289;-82
2022/09/12 13:17:25;;;;;;;3.22;2.92;;;;;;;;;;5047709;28;20217;-79
2022/09/12 13:19:54;;;;;;;3.03;2.83;;;;;;;;;;5047931;28;20230;-82
2022/09/12 13:22:24;;;;;;;2.92;2.72;;;;;;;;;;5048734;28;20206;-79
2022/09/12 13:24:52;;;;;;;2.90;2.70;;;;;;;;;;5049729;28;20234;-83
2022/09/12 13:27:20;;;;;;;2.95;2.75;;;;;;;;;;5050628;28;20220;-79
2022/09/12 13:29:47;;;;;;;3.35;3.15;;;;;;;;;;5049061;28;20238;-79
2022/09/12 13:32:14;;;;;;;3.35;3.05;;;;;;;;;;5049295;28;20211;-79
2022/09/12 13:34:49;;;;;;;2.90;2.70;;;;;;;;;;5047862;28;20235;-82
2022/09/12 13:37:28;;;;;;;2.90;2.70;;;;;;;;;;5048436;28;20643;-81
2022/09/12 13:39:58;;;;;;;4.57;2.88;;;;;;;;;;5047338;28;20269;-80
2022/09/12 13:42:36;;;;;;;3.05;2.85;;;;;;;;;;5044651;28;20210;-79
2022/09/12 13:45:05;;;;;;;3.30;3.10;;;;;;;;;;5035933;28;20237;-87
2022/09/12 13:47:37;;;;;;;3.00;2.80;;;;;;;;;;5042928;28;20214;-88
2022/09/12 13:50:07;;;;;;;3.72;2.95;;;;;;;;;;5031612;28;20246;-88
2022/09/12 13:52:35;;;;;;;3.50;3.20;;;;;;;;;;5031940;28;20234;-87
2022/09/12 13:55:07;;;;;;;3.20;2.90;;;;;;;;;;5033557;28;20234;-87
2022/09/12 13:57:36;;;;;;;3.42;3.10;;;;;;;;;;5035014;28;20215;-87
2022/09/12 14:00:06;;;;;;;2.88;2.67;;;;;;;;;;5034549;28;20234;-87
2022/09/12 14:02:35;;;;;;;3.17;2.97;;;;;;;;;;5015334;28;20667;-87
2022/09/12 14:05:11;;;;;;;3.00;2.80;;;;;;;;;;5015349;28;20246;-87
2022/09/12 14:07:41;;;;;;;3.28;2.97;;;;;;;;;;5016226;28;20213;-88
2022/09/12 14:10:08;;;;;;;3.13;2.92;;;;;;;;;;5015157;28;20785;-87
2022/09/12 14:12:39;;;;;;;3.47;2.90;;;;;;;;;;5016152;28;20687;-88
2022/09/12 14:15:11;;;;;;;3.00;2.80;;;;;;;;;;5015145;28;20699;-87
2022/09/12 14:17:39;;;;;;;3.35;3.05;;;;;;;;;;5015680;28;20614;-87
2022/09/12 14:20:07;;;;;;;3.33;3.03;;;;;;;;;;5015944;28;20239;-87
2022/09/12 14:22:35;;;;;;;3.95;2.80;;;;;;;;;;5016476;28;20218;-87
2022/09/12 14:25:04;;;;;;;3.00;2.80;;;;;;;;;;5015340;28;20888;-87
2022/09/12 14:27:36;;;;;;;3.17;2.92;;;;;;;;;;5017536;28;20203;-87
2022/09/12 14:30:05;;;;;;;3.67;3.30;;;;;;;;;;5015843;28;20243;-87
2022/09/12 14:32:32;;;;;;;3.40;3.10;;;;;;;;;;5031881;28;20200;-88
2022/09/12 14:35:06;;;;;;;2.90;2.70;;;;;;;;;;5035856;28;20331;-88
2022/09/12 14:37:33;;;;;;;3.10;2.88;;;;;;;;;;5022033;28;20194;-87
2022/09/12 14:40:01;;;;;;;2.97;2.67;;;;;;;;;;5016025;28;20235;-88
2022/09/12 14:42:31;;;;;;;3.35;3.05;;;;;;;;;;5015846;28;20207;-87
2022/09/12 14:45:00;;;;;;;3.00;2.80;;;;;;;;;;5015333;28;20236;-82
2022/09/12 14:47:28;;;;;;;3.42;3.00;;;;;;;;;;5024766;28;20204;-82
2022/09/12 14:49:56;;;;;;;3.22;3.03;;;;;;;;;;5043344;28;20238;-83
2022/09/12 14:52:25;;;;;;;3.58;3.13;;;;;;;;;;5037619;28;20215;-82
2022/09/12 14:54:56;;;;;;;3.20;2.95;;;;;;;;;;5039003;28;20243;-82
2022/09/12 14:57:37;;;;;;;3.33;3.03;;;;;;;;;;5031510;28;20219;-83